sensor_id;sensor_type;location;lat;lon;timestamp;temperature;humidity
22645;DHT22;11489;50.834;6.752;2022-10-04T00:07:16;8.80;91.20
22645;DHT22;11489;50.834;6.752;2022-10-04T00:10:02;8.80;91.20
22645;DHT22;11489;50.834;6.752;2022-10-04T00:12:39;8.80;91.10
22645;DHT22;11489;50.834;6.752;2022-10-04T00:15:24;8.80;91.20
22645;DHT22;11489;50.834;6.752;2022-10-04T00:18:29;8.80;91.20
22645;DHT22;11489;50.834;6.752;2022-10-04T00:23:27;8.80;91.10
22645;DHT22;11489;50.834;6.752;2022-10-04T00:25:57;8.90;91.30
22645;DHT22;11489;50.834;6.752;2022-10-04T00:31:18;8.90;91.20
22645;DHT22;11489;50.834;6.752;2022-10-04T00:44:22;9.00;91.30
22645;DHT22;11489;50.834;6.752;2022-10-04T00:46:53;9.00;91.30
22645;DHT22;11489;50.834;6.752;2022-10-04T00:49:22;9.00;91.30
22645;DHT22;11489;50.834;6.752;2022-10-04T00:51:55;9.00;91.20
22645;DHT22;11489;50.834;6.752;2022-10-04T00:54:33;9.00;91.30
22645;DHT22;11489;50.834;6.752;2022-10-04T00:57:05;9.00;91.30
22645;DHT22;11489;50.834;6.752;2022-10-04T00:59:47;9.00;91.30
22645;DHT22;11489;50.834;6.752;2022-10-04T01:02:24;9.00;91.30
22645;DHT22;11489;50.834;6.752;2022-10-04T01:05:05;9.00;91.30
22645;DHT22;11489;50.834;6.752;2022-10-04T01:07:39;9.00;91.30
22645;DHT22;11489;50.834;6.752;2022-10-04T01:10:27;9.00;91.30
22645;DHT22;11489;50.834;6.752;2022-10-04T01:13:16;9.00;91.30
22645;DHT22;11489;50.834;6.752;2022-10-04T01:15:50;9.00;91.30
22645;DHT22;11489;50.834;6.752;2022-10-04T01:20:51;9.00;91.40
22645;DHT22;11489;50.834;6.752;2022-10-04T01:29:08;9.00;91.50
22645;DHT22;11489;50.834;6.752;2022-10-04T01:31:40;9.00;91.40
22645;DHT22;11489;50.834;6.752;2022-10-04T01:34:06;9.00;91.40
22645;DHT22;11489;50.834;6.752;2022-10-04T01:36:33;9.00;91.40
22645;DHT22;11489;50.834;6.752;2022-10-04T01:39:00;9.00;91.50
22645;DHT22;11489;50.834;6.752;2022-10-04T01:44:02;9.10;91.50
22645;DHT22;11489;50.834;6.752;2022-10-04T01:46:34;9.10;91.50
22645;DHT22;11489;50.834;6.752;2022-10-04T01:49:03;9.10;91.50
22645;DHT22;11489;50.834;6.752;2022-10-04T01:51:37;9.10;91.50
22645;DHT22;11489;50.834;6.752;2022-10-04T01:54:07;9.10;91.50
22645;DHT22;11489;50.834;6.752;2022-10-04T01:56:52;9.20;91.50
22645;DHT22;11489;50.834;6.752;2022-10-04T01:59:24;9.10;91.50
22645;DHT22;11489;50.834;6.752;2022-10-04T02:01:58;9.10;91.40
22645;DHT22;11489;50.834;6.752;2022-10-04T02:04:31;9.20;91.40
22645;DHT22;11489;50.834;6.752;2022-10-04T02:06:59;9.10;91.40
22645;DHT22;11489;50.834;6.752;2022-10-04T02:09:33;9.10;91.30
22645;DHT22;11489;50.834;6.752;2022-10-04T02:12:00;9.10;91.30
22645;DHT22;11489;50.834;6.752;2022-10-04T02:14:31;9.10;91.20
22645;DHT22;11489;50.834;6.752;2022-10-04T02:16:58;9.10;91.20
22645;DHT22;11489;50.834;6.752;2022-10-04T02:19:33;9.10;91.20
22645;DHT22;11489;50.834;6.752;2022-10-04T02:22:01;9.10;91.20
22645;DHT22;11489;50.834;6.752;2022-10-04T02:24:28;9.00;91.10
22645;DHT22;11489;50.834;6.752;2022-10-04T02:26:54;9.00;91.10
22645;DHT22;11489;50.834;6.752;2022-10-04T02:29:20;9.00;91.10
22645;DHT22;11489;50.834;6.752;2022-10-04T02:31:49;8.90;91.10
22645;DHT22;11489;50.834;6.752;2022-10-04T02:34:41;8.90;91.00
22645;DHT22;11489;50.834;6.752;2022-10-04T02:37:07;8.90;91.00
22645;DHT22;11489;50.834;6.752;2022-10-04T02:39:39;8.80;91.00
22645;DHT22;11489;50.834;6.752;2022-10-04T02:45:28;8.80;91.10
22645;DHT22;11489;50.834;6.752;2022-10-04T02:48:01;8.70;91.10
22645;DHT22;11489;50.834;6.752;2022-10-04T02:50:44;8.70;91.00
22645;DHT22;11489;50.834;6.752;2022-10-04T02:53:34;8.60;91.10
22645;DHT22;11489;50.834;6.752;2022-10-04T02:56:02;8.60;91.10
22645;DHT22;11489;50.834;6.752;2022-10-04T02:58:29;8.50;91.10
22645;DHT22;11489;50.834;6.752;2022-10-04T03:00:58;8.50;91.20
22645;DHT22;11489;50.834;6.752;2022-10-04T03:06:06;8.50;91.30
22645;DHT22;11489;50.834;6.752;2022-10-04T03:11:09;8.40;91.40
22645;DHT22;11489;50.834;6.752;2022-10-04T03:13:39;8.40;91.40
22645;DHT22;11489;50.834;6.752;2022-10-04T03:16:06;8.40;91.40
22645;DHT22;11489;50.834;6.752;2022-10-04T03:18:34;8.40;91.40
22645;DHT22;11489;50.834;6.752;2022-10-04T03:21:08;8.40;91.50
22645;DHT22;11489;50.834;6.752;2022-10-04T03:23:36;8.40;91.50
22645;DHT22;11489;50.834;6.752;2022-10-04T03:26:27;8.40;91.50
22645;DHT22;11489;50.834;6.752;2022-10-04T03:28:58;8.40;91.50
22645;DHT22;11489;50.834;6.752;2022-10-04T03:31:25;8.30;91.50
22645;DHT22;11489;50.834;6.752;2022-10-04T03:33:55;8.30;91.50
22645;DHT22;11489;50.834;6.752;2022-10-04T03:36:23;8.30;91.50
22645;DHT22;11489;50.834;6.752;2022-10-04T03:38:52;8.30;91.50
22645;DHT22;11489;50.834;6.752;2022-10-04T03:41:21;8.30;91.60
22645;DHT22;11489;50.834;6.752;2022-10-04T03:43:49;8.30;91.60
22645;DHT22;11489;50.834;6.752;2022-10-04T03:46:16;8.30;91.60
22645;DHT22;11489;50.834;6.752;2022-10-04T03:48:45;8.30;91.60
22645;DHT22;11489;50.834;6.752;2022-10-04T03:51:25;8.30;91.60
22645;DHT22;11489;50.834;6.752;2022-10-04T03:53:56;8.30;91.70
22645;DHT22;11489;50.834;6.752;2022-10-04T03:56:26;8.30;91.60
22645;DHT22;11489;50.834;6.752;2022-10-04T03:58:53;8.30;91.60
22645;DHT22;11489;50.834;6.752;2022-10-04T04:01:29;8.20;91.50
22645;DHT22;11489;50.834;6.752;2022-10-04T04:04:19;8.20;91.50
22645;DHT22;11489;50.834;6.752;2022-10-04T04:06:59;8.20;91.50
22645;DHT22;11489;50.834;6.752;2022-10-04T04:09:46;8.20;91.50
22645;DHT22;11489;50.834;6.752;2022-10-04T04:12:19;8.20;91.60
22645;DHT22;11489;50.834;6.752;2022-10-04T04:14:49;8.10;91.40
22645;DHT22;11489;50.834;6.752;2022-10-04T04:19:52;8.10;91.50
22645;DHT22;11489;50.834;6.752;2022-10-04T04:22:18;8.10;91.50
22645;DHT22;11489;50.834;6.752;2022-10-04T04:24:46;8.10;91.50
22645;DHT22;11489;50.834;6.752;2022-10-04T04:27:14;8.00;91.60
22645;DHT22;11489;50.834;6.752;2022-10-04T04:30:01;8.10;91.60
22645;DHT22;11489;50.834;6.752;2022-10-04T04:32:34;8.00;91.70
22645;DHT22;11489;50.834;6.752;2022-10-04T04:35:04;8.00;91.70
22645;DHT22;11489;50.834;6.752;2022-10-04T04:37:36;8.00;91.60
22645;DHT22;11489;50.834;6.752;2022-10-04T04:40:19;8.00;91.60
22645;DHT22;11489;50.834;6.752;2022-10-04T04:42:47;8.00;91.70
22645;DHT22;11489;50.834;6.752;2022-10-04T04:45:19;7.90;91.50
22645;DHT22;11489;50.834;6.752;2022-10-04T04:47:49;7.90;91.50
22645;DHT22;11489;50.834;6.752;2022-10-04T04:50:20;7.90;91.50
22645;DHT22;11489;50.834;6.752;2022-10-04T04:52:52;7.90;91.50
22645;DHT22;11489;50.834;6.752;2022-10-04T04:55:22;7.90;91.50
22645;DHT22;11489;50.834;6.752;2022-10-04T04:57:50;7.90;91.60
22645;DHT22;11489;50.834;6.752;2022-10-04T05:00:31;7.80;91.60
22645;DHT22;11489;50.834;6.752;2022-10-04T05:03:03;7.80;91.60
22645;DHT22;11489;50.834;6.752;2022-10-04T05:05:34;7.80;91.70
22645;DHT22;11489;50.834;6.752;2022-10-04T05:08:26;7.80;91.70
22645;DHT22;11489;50.834;6.752;2022-10-04T05:13:21;7.80;91.80
22645;DHT22;11489;50.834;6.752;2022-10-04T05:15:53;7.80;91.90
22645;DHT22;11489;50.834;6.752;2022-10-04T05:18:25;7.80;91.90
22645;DHT22;11489;50.834;6.752;2022-10-04T05:20:53;7.80;92.00
22645;DHT22;11489;50.834;6.752;2022-10-04T05:23:20;7.80;92.00
22645;DHT22;11489;50.834;6.752;2022-10-04T05:25:46;7.90;92.00
22645;DHT22;11489;50.834;6.752;2022-10-04T05:28:13;7.90;92.00
22645;DHT22;11489;50.834;6.752;2022-10-04T05:30:49;7.90;92.00
22645;DHT22;11489;50.834;6.752;2022-10-04T05:33:35;7.90;92.10
22645;DHT22;11489;50.834;6.752;2022-10-04T05:38:45;8.00;92.10
22645;DHT22;11489;50.834;6.752;2022-10-04T05:44:19;8.00;92.10
22645;DHT22;11489;50.834;6.752;2022-10-04T05:46:48;8.10;92.10
22645;DHT22;11489;50.834;6.752;2022-10-04T05:49:14;8.00;92.10
22645;DHT22;11489;50.834;6.752;2022-10-04T05:51:57;8.00;92.00
22645;DHT22;11489;50.834;6.752;2022-10-04T05:54:28;8.10;92.10
22645;DHT22;11489;50.834;6.752;2022-10-04T05:57:04;8.10;92.00
22645;DHT22;11489;50.834;6.752;2022-10-04T06:06:27;8.10;92.10
22645;DHT22;11489;50.834;6.752;2022-10-04T06:11:54;8.10;92.10
22645;DHT22;11489;50.834;6.752;2022-10-04T06:18:13;8.20;92.10
22645;DHT22;11489;50.834;6.752;2022-10-04T06:23:15;8.20;92.10
22645;DHT22;11489;50.834;6.752;2022-10-04T06:25:54;8.20;92.10
22645;DHT22;11489;50.834;6.752;2022-10-04T06:28:38;8.20;92.20
22645;DHT22;11489;50.834;6.752;2022-10-04T06:39:22;8.30;92.20
22645;DHT22;11489;50.834;6.752;2022-10-04T06:47:22;8.40;92.40
22645;DHT22;11489;50.834;6.752;2022-10-04T06:53:19;8.50;92.50
22645;DHT22;11489;50.834;6.752;2022-10-04T07:01:32;8.70;92.60
22645;DHT22;11489;50.834;6.752;2022-10-04T07:04:23;8.80;92.70
22645;DHT22;11489;50.834;6.752;2022-10-04T07:10:05;9.00;92.80
22645;DHT22;11489;50.834;6.752;2022-10-04T07:12:44;9.10;92.90
22645;DHT22;11489;50.834;6.752;2022-10-04T07:15:19;9.20;92.90
22645;DHT22;11489;50.834;6.752;2022-10-04T07:17:47;9.30;92.90
22645;DHT22;11489;50.834;6.752;2022-10-04T07:20:25;9.40;92.90
22645;DHT22;11489;50.834;6.752;2022-10-04T07:22:58;9.50;92.80
22645;DHT22;11489;50.834;6.752;2022-10-04T07:25:32;9.60;92.90
22645;DHT22;11489;50.834;6.752;2022-10-04T07:28:13;9.80;93.00
22645;DHT22;11489;50.834;6.752;2022-10-04T07:31:20;10.00;93.00
22645;DHT22;11489;50.834;6.752;2022-10-04T07:34:24;10.10;93.00
22645;DHT22;11489;50.834;6.752;2022-10-04T07:36:57;10.30;92.80
22645;DHT22;11489;50.834;6.752;2022-10-04T07:39:28;10.40;92.90
22645;DHT22;11489;50.834;6.752;2022-10-04T07:41:59;10.60;92.90
22645;DHT22;11489;50.834;6.752;2022-10-04T07:44:42;10.70;92.70
22645;DHT22;11489;50.834;6.752;2022-10-04T07:47:18;10.90;92.50
22645;DHT22;11489;50.834;6.752;2022-10-04T07:49:45;11.00;92.30
22645;DHT22;11489;50.834;6.752;2022-10-04T07:55:06;11.20;92.10
22645;DHT22;11489;50.834;6.752;2022-10-04T08:00:30;11.30;92.00
22645;DHT22;11489;50.834;6.752;2022-10-04T08:03:26;11.50;91.90
22645;DHT22;11489;50.834;6.752;2022-10-04T08:12:04;11.70;91.40
22645;DHT22;11489;50.834;6.752;2022-10-04T08:19:58;11.90;91.60
22645;DHT22;11489;50.834;6.752;2022-10-04T08:22:33;11.90;91.50
22645;DHT22;11489;50.834;6.752;2022-10-04T08:25:15;11.90;91.70
22645;DHT22;11489;50.834;6.752;2022-10-04T08:28:02;12.00;91.40
22645;DHT22;11489;50.834;6.752;2022-10-04T08:36:16;12.20;91.40
22645;DHT22;11489;50.834;6.752;2022-10-04T08:38:58;12.30;91.30
22645;DHT22;11489;50.834;6.752;2022-10-04T08:47:27;12.60;91.60
22645;DHT22;11489;50.834;6.752;2022-10-04T08:50:20;12.80;91.10
22645;DHT22;11489;50.834;6.752;2022-10-04T08:53:19;13.10;91.70
22645;DHT22;11489;50.834;6.752;2022-10-04T08:56:01;13.30;91.50
22645;DHT22;11489;50.834;6.752;2022-10-04T08:58:35;13.60;92.30
22645;DHT22;11489;50.834;6.752;2022-10-04T09:01:30;13.80;92.40
22645;DHT22;11489;50.834;6.752;2022-10-04T09:16:30;15.50;90.70
22645;DHT22;11489;50.834;6.752;2022-10-04T09:19:39;15.90;90.40
22645;DHT22;11489;50.834;6.752;2022-10-04T09:22:55;16.20;90.20
22645;DHT22;11489;50.834;6.752;2022-10-04T09:26:18;16.60;88.60
22645;DHT22;11489;50.834;6.752;2022-10-04T09:28:39;16.90;90.30
22645;DHT22;11489;50.834;6.752;2022-10-04T09:31:25;17.20;90.60
22645;DHT22;11489;50.834;6.752;2022-10-04T09:47:42;18.70;87.70
22645;DHT22;11489;50.834;6.752;2022-10-04T09:50:16;19.00;84.30
22645;DHT22;11489;50.834;6.752;2022-10-04T10:04:47;19.90;82.60
22645;DHT22;11489;50.834;6.752;2022-10-04T10:10:25;20.20;84.20
22645;DHT22;11489;50.834;6.752;2022-10-04T10:13:40;20.40;80.50
22645;DHT22;11489;50.834;6.752;2022-10-04T10:51:00;22.70;76.00
22645;DHT22;11489;50.834;6.752;2022-10-04T10:53:58;22.70;76.90
22645;DHT22;11489;50.834;6.752;2022-10-04T10:56:41;22.90;76.10
22645;DHT22;11489;50.834;6.752;2022-10-04T11:02:13;22.90;71.90
22645;DHT22;11489;50.834;6.752;2022-10-04T11:08:58;23.10;71.80
22645;DHT22;11489;50.834;6.752;2022-10-04T11:11:14;23.20;71.40
22645;DHT22;11489;50.834;6.752;2022-10-04T11:13:56;23.30;75.60
22645;DHT22;11489;50.834;6.752;2022-10-04T11:22:19;23.70;69.70
22645;DHT22;11489;50.834;6.752;2022-10-04T11:28:03;23.80;69.20
22645;DHT22;11489;50.834;6.752;2022-10-04T11:31:08;23.90;69.20
22645;DHT22;11489;50.834;6.752;2022-10-04T11:39:53;23.90;67.80
22645;DHT22;11489;50.834;6.752;2022-10-04T11:50:39;23.90;67.60
22645;DHT22;11489;50.834;6.752;2022-10-04T12:05:05;23.80;68.20
22645;DHT22;11489;50.834;6.752;2022-10-04T12:07:47;23.90;66.80
22645;DHT22;11489;50.834;6.752;2022-10-04T12:11:02;24.00;68.90
22645;DHT22;11489;50.834;6.752;2022-10-04T12:21:40;24.60;68.00
22645;DHT22;11489;50.834;6.752;2022-10-04T12:35:31;24.70;64.00
22645;DHT22;11489;50.834;6.752;2022-10-04T12:43:51;24.50;65.90
22645;DHT22;11489;50.834;6.752;2022-10-04T12:46:38;24.40;64.40
22645;DHT22;11489;50.834;6.752;2022-10-04T12:52:06;24.00;64.10
22645;DHT22;11489;50.834;6.752;2022-10-04T12:54:51;23.90;65.40
22645;DHT22;11489;50.834;6.752;2022-10-04T12:58:08;23.80;65.30
22645;DHT22;11489;50.834;6.752;2022-10-04T13:00:21;23.80;66.20
22645;DHT22;11489;50.834;6.752;2022-10-04T13:03:15;23.80;67.60
22645;DHT22;11489;50.834;6.752;2022-10-04T13:08:36;23.60;66.40
22645;DHT22;11489;50.834;6.752;2022-10-04T13:17:01;23.20;65.20
22645;DHT22;11489;50.834;6.752;2022-10-04T13:22:26;23.10;67.10
22645;DHT22;11489;50.834;6.752;2022-10-04T13:27:59;22.90;66.20
22645;DHT22;11489;50.834;6.752;2022-10-04T13:30:49;22.90;66.00
22645;DHT22;11489;50.834;6.752;2022-10-04T13:36:07;22.70;65.80
22645;DHT22;11489;50.834;6.752;2022-10-04T13:38:49;22.50;65.00
22645;DHT22;11489;50.834;6.752;2022-10-04T13:46:42;22.40;66.10
22645;DHT22;11489;50.834;6.752;2022-10-04T14:26:11;22.20;67.90
22645;DHT22;11489;50.834;6.752;2022-10-04T14:29:21;22.30;67.40
22645;DHT22;11489;50.834;6.752;2022-10-04T15:03:12;22.30;67.30
22645;DHT22;11489;50.834;6.752;2022-10-04T15:10:58;22.50;67.80
22645;DHT22;11489;50.834;6.752;2022-10-04T15:13:38;22.70;67.70
22645;DHT22;11489;50.834;6.752;2022-10-04T15:18:53;22.80;66.00
22645;DHT22;11489;50.834;6.752;2022-10-04T15:24:25;23.00;64.80
22645;DHT22;11489;50.834;6.752;2022-10-04T15:30:26;23.10;65.30
22645;DHT22;11489;50.834;6.752;2022-10-04T15:41:18;22.80;64.00
22645;DHT22;11489;50.834;6.752;2022-10-04T16:00:26;21.90;65.40
22645;DHT22;11489;50.834;6.752;2022-10-04T16:05:47;21.60;65.40
22645;DHT22;11489;50.834;6.752;2022-10-04T16:08:32;21.50;66.20
22645;DHT22;11489;50.834;6.752;2022-10-04T16:11:08;21.40;67.00
22645;DHT22;11489;50.834;6.752;2022-10-04T16:19:06;21.10;67.60
22645;DHT22;11489;50.834;6.752;2022-10-04T16:29:48;20.80;68.40
22645;DHT22;11489;50.834;6.752;2022-10-04T16:32:27;20.70;67.10
22645;DHT22;11489;50.834;6.752;2022-10-04T16:35:16;20.70;68.00
22645;DHT22;11489;50.834;6.752;2022-10-04T16:37:59;20.60;67.30
22645;DHT22;11489;50.834;6.752;2022-10-04T16:40:46;20.40;68.60
22645;DHT22;11489;50.834;6.752;2022-10-04T16:43:27;20.40;68.20
22645;DHT22;11489;50.834;6.752;2022-10-04T16:56:22;19.80;69.10
22645;DHT22;11489;50.834;6.752;2022-10-04T16:59:10;19.60;68.80
22645;DHT22;11489;50.834;6.752;2022-10-04T17:04:27;19.30;69.60
22645;DHT22;11489;50.834;6.752;2022-10-04T17:09:57;19.00;69.80
22645;DHT22;11489;50.834;6.752;2022-10-04T17:13:00;18.80;69.80
22645;DHT22;11489;50.834;6.752;2022-10-04T17:16:01;18.60;70.10
22645;DHT22;11489;50.834;6.752;2022-10-04T17:24:03;18.00;71.00
22645;DHT22;11489;50.834;6.752;2022-10-04T17:29:31;17.60;71.80
22645;DHT22;11489;50.834;6.752;2022-10-04T17:48:21;16.40;73.40
22645;DHT22;11489;50.834;6.752;2022-10-04T17:54:25;16.10;73.50
22645;DHT22;11489;50.834;6.752;2022-10-04T17:57:16;16.00;73.40
22645;DHT22;11489;50.834;6.752;2022-10-04T17:59:50;15.80;73.70
22645;DHT22;11489;50.834;6.752;2022-10-04T18:02:43;15.70;73.70
22645;DHT22;11489;50.834;6.752;2022-10-04T18:13:53;15.30;73.90
22645;DHT22;11489;50.834;6.752;2022-10-04T18:16:55;15.10;73.80
22645;DHT22;11489;50.834;6.752;2022-10-04T18:22:19;15.00;73.80
22645;DHT22;11489;50.834;6.752;2022-10-04T18:24:47;14.90;74.40
22645;DHT22;11489;50.834;6.752;2022-10-04T18:27:20;14.80;74.50
22645;DHT22;11489;50.834;6.752;2022-10-04T18:30:17;14.70;74.50
22645;DHT22;11489;50.834;6.752;2022-10-04T18:32:47;14.70;74.00
22645;DHT22;11489;50.834;6.752;2022-10-04T18:35:27;14.60;74.70
22645;DHT22;11489;50.834;6.752;2022-10-04T18:37:56;14.50;74.70
22645;DHT22;11489;50.834;6.752;2022-10-04T18:40:31;14.50;75.00
22645;DHT22;11489;50.834;6.752;2022-10-04T18:42:58;14.40;75.10
22645;DHT22;11489;50.834;6.752;2022-10-04T18:45:27;14.30;75.20
22645;DHT22;11489;50.834;6.752;2022-10-04T18:47:54;14.20;75.20
22645;DHT22;11489;50.834;6.752;2022-10-04T18:50:29;14.10;75.30
22645;DHT22;11489;50.834;6.752;2022-10-04T18:56:09;14.00;75.50
22645;DHT22;11489;50.834;6.752;2022-10-04T19:10:05;13.50;76.30
22645;DHT22;11489;50.834;6.752;2022-10-04T19:15:16;13.40;76.60
22645;DHT22;11489;50.834;6.752;2022-10-04T19:20:46;13.20;77.70
22645;DHT22;11489;50.834;6.752;2022-10-04T19:23:43;13.10;77.10
22645;DHT22;11489;50.834;6.752;2022-10-04T19:29:06;13.00;77.80
22645;DHT22;11489;50.834;6.752;2022-10-04T19:31:42;13.00;78.10
22645;DHT22;11489;50.834;6.752;2022-10-04T19:34:29;12.90;78.30
22645;DHT22;11489;50.834;6.752;2022-10-04T19:37:00;12.90;78.40
22645;DHT22;11489;50.834;6.752;2022-10-04T19:43:33;12.90;78.80
22645;DHT22;11489;50.834;6.752;2022-10-04T19:48:03;12.80;78.90
22645;DHT22;11489;50.834;6.752;2022-10-04T19:50:43;12.80;79.10
22645;DHT22;11489;50.834;6.752;2022-10-04T19:53:19;12.80;79.30
22645;DHT22;11489;50.834;6.752;2022-10-04T19:55:53;12.80;79.40
22645;DHT22;11489;50.834;6.752;2022-10-04T20:00:52;12.70;79.50
22645;DHT22;11489;50.834;6.752;2022-10-04T20:03:18;12.70;79.60
22645;DHT22;11489;50.834;6.752;2022-10-04T20:05:52;12.70;79.70
22645;DHT22;11489;50.834;6.752;2022-10-04T20:13:40;12.60;80.20
22645;DHT22;11489;50.834;6.752;2022-10-04T20:16:06;12.60;80.30
22645;DHT22;11489;50.834;6.752;2022-10-04T20:29:07;12.50;80.50
22645;DHT22;11489;50.834;6.752;2022-10-04T20:31:53;12.50;80.40
22645;DHT22;11489;50.834;6.752;2022-10-04T20:36:58;12.40;80.60
22645;DHT22;11489;50.834;6.752;2022-10-04T20:42:30;12.40;80.80
22645;DHT22;11489;50.834;6.752;2022-10-04T20:44:57;12.30;80.60
22645;DHT22;11489;50.834;6.752;2022-10-04T20:47:42;12.20;80.40
22645;DHT22;11489;50.834;6.752;2022-10-04T20:50:30;12.20;80.70
22645;DHT22;11489;50.834;6.752;2022-10-04T20:53:21;12.10;80.80
22645;DHT22;11489;50.834;6.752;2022-10-04T20:55:47;12.00;80.60
22645;DHT22;11489;50.834;6.752;2022-10-04T20:58:30;12.00;80.70
22645;DHT22;11489;50.834;6.752;2022-10-04T21:01:34;11.90;81.10
22645;DHT22;11489;50.834;6.752;2022-10-04T21:04:23;11.90;81.20
22645;DHT22;11489;50.834;6.752;2022-10-04T21:07:10;11.80;81.30
22645;DHT22;11489;50.834;6.752;2022-10-04T21:09:41;11.70;81.00
22645;DHT22;11489;50.834;6.752;2022-10-04T21:18:05;11.50;81.80
22645;DHT22;11489;50.834;6.752;2022-10-04T21:20:41;11.40;82.00
22645;DHT22;11489;50.834;6.752;2022-10-04T21:23:28;11.30;82.10
22645;DHT22;11489;50.834;6.752;2022-10-04T21:28:46;11.20;82.70
22645;DHT22;11489;50.834;6.752;2022-10-04T21:31:12;11.10;82.30
22645;DHT22;11489;50.834;6.752;2022-10-04T21:33:37;11.10;82.50
22645;DHT22;11489;50.834;6.752;2022-10-04T21:36:04;11.00;82.60
22645;DHT22;11489;50.834;6.752;2022-10-04T21:38:30;10.90;82.80
22645;DHT22;11489;50.834;6.752;2022-10-04T21:40:56;10.90;83.10
22645;DHT22;11489;50.834;6.752;2022-10-04T21:43:23;10.90;83.30
22645;DHT22;11489;50.834;6.752;2022-10-04T21:45:49;10.80;83.50
22645;DHT22;11489;50.834;6.752;2022-10-04T21:48:15;10.80;83.70
22645;DHT22;11489;50.834;6.752;2022-10-04T21:50:42;10.80;84.00
22645;DHT22;11489;50.834;6.752;2022-10-04T21:53:08;10.80;84.30
22645;DHT22;11489;50.834;6.752;2022-10-04T21:55:34;10.70;84.40
22645;DHT22;11489;50.834;6.752;2022-10-04T21:58:02;10.70;84.70
22645;DHT22;11489;50.834;6.752;2022-10-04T22:00:28;10.70;85.00
22645;DHT22;11489;50.834;6.752;2022-10-04T22:02:53;10.70;85.20
22645;DHT22;11489;50.834;6.752;2022-10-04T22:05:19;10.80;85.30
22645;DHT22;11489;50.834;6.752;2022-10-04T22:07:45;10.80;85.30
22645;DHT22;11489;50.834;6.752;2022-10-04T22:10:10;10.80;85.40
22645;DHT22;11489;50.834;6.752;2022-10-04T22:12:36;10.80;85.40
22645;DHT22;11489;50.834;6.752;2022-10-04T22:15:02;10.80;85.40
22645;DHT22;11489;50.834;6.752;2022-10-04T22:17:28;10.80;85.40
22645;DHT22;11489;50.834;6.752;2022-10-04T22:19:54;10.80;85.40
22645;DHT22;11489;50.834;6.752;2022-10-04T22:22:19;10.80;85.50
22645;DHT22;11489;50.834;6.752;2022-10-04T22:24:45;10.80;85.60
22645;DHT22;11489;50.834;6.752;2022-10-04T22:27:16;10.80;85.60
22645;DHT22;11489;50.834;6.752;2022-10-04T22:29:42;10.80;85.80
22645;DHT22;11489;50.834;6.752;2022-10-04T22:34:41;10.70;85.60
22645;DHT22;11489;50.834;6.752;2022-10-04T22:37:09;10.70;85.40
22645;DHT22;11489;50.834;6.752;2022-10-04T22:39:35;10.70;85.50
22645;DHT22;11489;50.834;6.752;2022-10-04T22:42:01;10.60;85.50
22645;DHT22;11489;50.834;6.752;2022-10-04T22:44:34;10.60;85.60
22645;DHT22;11489;50.834;6.752;2022-10-04T22:47:03;10.60;85.90
22645;DHT22;11489;50.834;6.752;2022-10-04T22:49:30;10.60;85.70
22645;DHT22;11489;50.834;6.752;2022-10-04T22:51:57;10.50;85.80
22645;DHT22;11489;50.834;6.752;2022-10-04T22:54:33;10.50;86.00
22645;DHT22;11489;50.834;6.752;2022-10-04T22:56:59;10.50;86.50
22645;DHT22;11489;50.834;6.752;2022-10-04T22:59:40;10.40;86.30
22645;DHT22;11489;50.834;6.752;2022-10-04T23:02:19;10.40;86.70
22645;DHT22;11489;50.834;6.752;2022-10-04T23:04:51;10.40;86.90
22645;DHT22;11489;50.834;6.752;2022-10-04T23:07:18;10.40;86.80
22645;DHT22;11489;50.834;6.752;2022-10-04T23:09:43;10.40;86.80
22645;DHT22;11489;50.834;6.752;2022-10-04T23:12:09;10.30;86.80
22645;DHT22;11489;50.834;6.752;2022-10-04T23:14:36;10.30;86.80
22645;DHT22;11489;50.834;6.752;2022-10-04T23:17:20;10.30;86.80
22645;DHT22;11489;50.834;6.752;2022-10-04T23:19:48;10.30;87.20
22645;DHT22;11489;50.834;6.752;2022-10-04T23:22:16;10.30;87.00
22645;DHT22;11489;50.834;6.752;2022-10-04T23:24:42;10.20;86.90
22645;DHT22;11489;50.834;6.752;2022-10-04T23:27:15;10.20;86.90
22645;DHT22;11489;50.834;6.752;2022-10-04T23:29:44;10.20;87.10
22645;DHT22;11489;50.834;6.752;2022-10-04T23:32:16;10.10;87.10
22645;DHT22;11489;50.834;6.752;2022-10-04T23:34:49;10.10;87.20
22645;DHT22;11489;50.834;6.752;2022-10-04T23:37:22;10.10;87.20
22645;DHT22;11489;50.834;6.752;2022-10-04T23:39:50;10.10;87.30
22645;DHT22;11489;50.834;6.752;2022-10-04T23:42:20;10.00;87.00
22645;DHT22;11489;50.834;6.752;2022-10-04T23:44:50;10.00;87.00
22645;DHT22;11489;50.834;6.752;2022-10-04T23:47:20;9.90;86.90
22645;DHT22;11489;50.834;6.752;2022-10-04T23:49:48;9.90;87.00
22645;DHT22;11489;50.834;6.752;2022-10-04T23:52:20;9.90;87.00
22645;DHT22;11489;50.834;6.752;2022-10-04T23:54:48;9.80;87.00
22645;DHT22;11489;50.834;6.752;2022-10-04T23:57:20;9.70;87.00
22645;DHT22;11489;50.834;6.752;2022-10-04T23:59:48;9.70;87.20
